createdAt,value
2019-02-26T00:02:02.042Z,16.73
2019-02-26T00:04:34.446Z,14.53
2019-02-26T00:07:07.387Z,16.87
2019-02-26T00:09:39.615Z,15.03
2019-02-26T00:12:11.246Z,12.17
2019-02-26T00:14:43.052Z,10.27
2019-02-26T00:17:17.553Z,11.63
2019-02-26T00:19:49.337Z,11.10
2019-02-26T00:22:21.461Z,15.83
2019-02-26T00:24:53.080Z,16.73
2019-02-26T00:27:26.243Z,19.43
2019-02-26T00:29:58.068Z,13.83
2019-02-26T00:32:30.363Z,15.23
2019-02-26T00:35:06.945Z,15.27
2019-02-26T00:37:38.768Z,13.37
2019-02-26T00:40:14.616Z,17.80
2019-02-26T00:42:50.256Z,18.70
2019-02-26T00:45:24.739Z,22.70
2019-02-26T00:47:53.519Z,18.43
2019-02-26T00:50:25.191Z,16.40
2019-02-26T00:52:58.852Z,17.37
2019-02-26T00:55:32.213Z,18.87
2019-02-26T00:58:05.830Z,19.50
2019-02-26T01:00:37.503Z,17.67
2019-02-26T01:03:11.057Z,15.93
2019-02-26T01:05:43.161Z,17.13
2019-02-26T01:08:17.481Z,16.47
2019-02-26T01:10:49.186Z,18.70
2019-02-26T01:13:22.407Z,25.50
2019-02-26T01:15:54.321Z,17.27
2019-02-26T01:18:26.840Z,21.23
2019-02-26T01:21:00.259Z,19.20
2019-02-26T01:23:32.410Z,17.60
2019-02-26T01:26:04.008Z,14.90
2019-02-26T01:28:35.688Z,16.13
2019-02-26T01:31:07.427Z,18.10
2019-02-26T01:33:39.169Z,18.23
2019-02-26T01:36:10.760Z,15.73
2019-02-26T01:38:44.390Z,24.27
2019-02-26T01:41:17.859Z,24.83
2019-02-26T01:43:49.272Z,26.83
2019-02-26T01:46:20.805Z,18.60
2019-02-26T01:48:53.069Z,19.83
2019-02-26T01:51:26.097Z,24.27
2019-02-26T01:53:58.967Z,22.67
2019-02-26T01:56:30.631Z,23.93
2019-02-26T01:59:02.844Z,29.07
2019-02-26T02:01:34.507Z,21.63
2019-02-26T02:04:08.208Z,23.60
2019-02-26T02:06:41.236Z,21.33
2019-02-26T02:09:13.996Z,25.43
2019-02-26T02:11:45.845Z,26.63
2019-02-26T02:14:17.618Z,29.23
2019-02-26T02:16:49.771Z,26.43
2019-02-26T02:19:23.395Z,29.37
2019-02-26T02:21:58.283Z,28.93
2019-02-26T02:24:29.908Z,30.27
2019-02-26T02:27:01.522Z,30.43
2019-02-26T02:29:33.603Z,28.60
2019-02-26T02:32:07.731Z,34.03
2019-02-26T02:34:40.888Z,27.87
2019-02-26T02:37:14.848Z,29.40
2019-02-26T02:39:46.461Z,30.17
2019-02-26T02:42:19.105Z,38.20
2019-02-26T02:44:52.792Z,31.67
2019-02-26T02:47:25.318Z,30.77
2019-02-26T02:49:58.090Z,39.53
2019-02-26T02:52:30.457Z,36.23
2019-02-26T02:55:04.560Z,40.40
2019-02-26T02:57:36.083Z,41.07
2019-02-26T03:00:12.007Z,41.87
2019-02-26T03:02:46.792Z,45.80
2019-02-26T03:05:17.497Z,47.67
2019-02-26T03:07:51.648Z,46.10
2019-02-26T03:10:26.087Z,44.30
2019-02-26T03:12:57.805Z,53.60
2019-02-26T03:15:30.023Z,59.87
2019-02-26T03:18:04.157Z,52.00
2019-02-26T03:20:40.157Z,58.27
2019-02-26T03:23:15.166Z,54.10
2019-02-26T03:25:44.519Z,51.43
2019-02-26T03:28:39.988Z,47.97
2019-02-26T03:31:12.174Z,62.70
2019-02-26T03:33:44.257Z,53.70
2019-02-26T03:36:16.720Z,56.57
2019-02-26T03:38:51.183Z,58.80
2019-02-26T03:41:26.143Z,58.53
2019-02-26T03:44:00.316Z,51.57
2019-02-26T03:46:30.575Z,54.50
2019-02-26T03:49:02.773Z,43.53
2019-02-26T03:51:39.120Z,51.97
2019-02-26T03:54:08.599Z,51.33
2019-02-26T03:56:40.101Z,37.33
2019-02-26T03:59:11.864Z,54.53
2019-02-26T04:01:43.583Z,50.37
2019-02-26T04:04:15.171Z,52.90
2019-02-26T04:06:47.325Z,52.37
2019-02-26T04:09:19.627Z,53.37
2019-02-26T04:11:53.412Z,52.97
2019-02-26T04:14:26.361Z,55.07
2019-02-26T04:17:01.488Z,57.23
2019-02-26T04:19:32.151Z,44.53
2019-02-26T04:22:31.096Z,45.83
2019-02-26T04:25:16.702Z,48.37
2019-02-26T04:27:57.002Z,58.20
2019-02-26T04:30:59.742Z,50.13
2019-02-26T04:33:38.593Z,54.07
2019-02-26T04:36:29.466Z,49.07
2019-02-26T04:39:42.274Z,56.23
2019-02-26T04:42:43.681Z,65.77
2019-02-26T04:46:07.895Z,56.00
2019-02-26T04:48:51.694Z,49.37
2019-02-26T04:51:23.247Z,49.23
2019-02-26T04:53:56.132Z,52.33
2019-02-26T04:56:31.262Z,52.97
2019-02-26T04:59:03.584Z,56.40
2019-02-26T05:01:34.780Z,60.10
2019-02-26T05:04:06.452Z,48.67
2019-02-26T05:06:38.004Z,55.87
2019-02-26T05:09:10.620Z,49.63
2019-02-26T05:11:42.401Z,45.33
2019-02-26T05:14:15.405Z,41.83
2019-02-26T05:16:47.258Z,41.23
2019-02-26T05:19:21.510Z,53.43
2019-02-26T05:21:53.605Z,46.47
2019-02-26T05:24:26.277Z,45.33
2019-02-26T05:26:58.014Z,54.87
2019-02-26T05:29:29.564Z,59.67
2019-02-26T05:32:04.002Z,52.60
2019-02-26T05:34:37.357Z,54.07
2019-02-26T05:37:11.100Z,49.43
2019-02-26T05:39:43.259Z,47.50
2019-02-26T05:42:15.225Z,52.80
2019-02-26T05:44:46.760Z,50.27
2019-02-26T05:47:21.552Z,47.80
2019-02-26T05:49:52.275Z,63.40
2019-02-26T05:52:25.034Z,46.67
2019-02-26T05:54:57.104Z,52.50
2019-02-26T05:57:32.550Z,45.43
2019-02-26T06:00:01.982Z,46.40
2019-02-26T06:02:36.675Z,56.77
2019-02-26T06:05:11.659Z,52.17
2019-02-26T06:07:43.226Z,49.03
2019-02-26T06:10:14.743Z,59.30
2019-02-26T06:12:46.755Z,62.03
2019-02-26T06:15:20.419Z,56.67
2019-02-26T06:17:53.417Z,43.90
2019-02-26T06:20:28.062Z,46.67
2019-02-26T06:22:58.274Z,50.23
2019-02-26T06:25:30.062Z,49.60
2019-02-26T06:28:04.519Z,42.20
2019-02-26T06:30:34.874Z,51.47
2019-02-26T06:33:07.113Z,50.30
2019-02-26T06:35:41.145Z,55.20
2019-02-26T06:38:13.704Z,48.73
2019-02-26T06:40:47.089Z,63.10
2019-02-26T06:43:18.496Z,48.57
2019-02-26T06:45:50.240Z,55.17
2019-02-26T06:48:24.604Z,53.63
2019-02-26T06:50:57.582Z,46.37
2019-02-26T06:53:29.920Z,52.60
2019-02-26T06:56:02.192Z,42.57
2019-02-26T06:58:35.456Z,41.33
2019-02-26T07:01:09.633Z,68.57
2019-02-26T07:03:41.104Z,59.87
2019-02-26T07:06:12.693Z,53.77
2019-02-26T07:08:45.039Z,54.60
2019-02-26T07:11:17.664Z,53.40
2019-02-26T07:13:49.235Z,54.07
2019-02-26T07:16:21.202Z,41.23
2019-02-26T07:18:52.836Z,39.30
2019-02-26T07:21:24.798Z,48.37
2019-02-26T07:23:56.935Z,50.83
2019-02-26T07:26:29.564Z,50.77
2019-02-26T07:29:03.359Z,50.77
2019-02-26T07:31:35.510Z,45.23
2019-02-26T07:34:07.295Z,46.80
2019-02-26T07:36:41.018Z,52.33
2019-02-26T07:39:12.937Z,48.40
2019-02-26T07:41:47.102Z,50.87
2019-02-26T07:44:21.252Z,48.07
2019-02-26T07:46:52.341Z,48.20
2019-02-26T07:49:24.001Z,50.83
2019-02-26T07:51:57.773Z,44.27
2019-02-26T07:54:29.273Z,48.80
2019-02-26T07:57:02.671Z,47.47
2019-02-26T07:59:34.882Z,49.67
2019-02-26T08:02:08.841Z,49.57
2019-02-26T08:04:43.643Z,44.13
2019-02-26T08:07:15.347Z,44.03
2019-02-26T08:09:47.033Z,50.67
2019-02-26T08:12:18.655Z,53.83
2019-02-26T08:14:50.365Z,47.77
2019-02-26T08:17:21.958Z,50.77
2019-02-26T08:19:53.647Z,46.80
2019-02-26T08:22:27.015Z,49.80
2019-02-26T08:24:58.708Z,49.20
2019-02-26T08:27:30.859Z,50.03
2019-02-26T08:30:04.275Z,49.80
2019-02-26T08:32:36.089Z,54.77
2019-02-26T08:35:09.284Z,42.67
2019-02-26T08:37:40.950Z,41.07
2019-02-26T08:40:14.182Z,51.43
2019-02-26T08:42:45.810Z,50.23
2019-02-26T08:45:22.874Z,37.03
2019-02-26T08:47:53.729Z,42.80
2019-02-26T08:50:28.524Z,32.93
2019-02-26T08:52:59.166Z,41.73
2019-02-26T08:55:30.869Z,34.33
2019-02-26T08:58:02.658Z,41.27
2019-02-26T09:00:34.375Z,44.33
2019-02-26T09:03:08.277Z,46.10
2019-02-26T09:05:39.578Z,42.80
2019-02-26T09:08:14.018Z,42.70
2019-02-26T09:10:46.920Z,41.30
2019-02-26T09:13:19.221Z,45.73
2019-02-26T09:15:51.008Z,45.47
2019-02-26T09:18:24.729Z,35.20
2019-02-26T09:20:56.121Z,37.00
2019-02-26T09:23:28.809Z,38.60
2019-02-26T09:26:02.602Z,39.53
2019-02-26T09:28:34.826Z,51.20
2019-02-26T09:31:07.390Z,45.73
2019-02-26T09:33:40.927Z,49.87
2019-02-26T09:36:15.713Z,47.47
2019-02-26T09:38:46.889Z,48.13
2019-02-26T09:41:21.445Z,55.37
2019-02-26T09:43:53.286Z,40.03
2019-02-26T09:46:24.817Z,45.60
2019-02-26T09:48:57.916Z,44.73
2019-02-26T09:51:30.692Z,50.70
2019-02-26T09:54:02.995Z,33.43
2019-02-26T09:56:34.728Z,43.93
2019-02-26T09:59:07.124Z,47.33
2019-02-26T10:01:40.764Z,44.83
2019-02-26T10:04:12.806Z,46.97
2019-02-26T10:06:44.953Z,51.50
2019-02-26T10:09:18.908Z,40.93
2019-02-26T10:11:51.690Z,44.63
2019-02-26T10:14:23.405Z,41.27
2019-02-26T10:16:56.951Z,41.07
2019-02-26T10:19:28.464Z,41.90
2019-02-26T10:22:00.711Z,42.23
2019-02-26T10:24:35.290Z,36.33
2019-02-26T10:27:10.921Z,48.50
2019-02-26T10:29:44.824Z,48.83
2019-02-26T10:32:15.005Z,48.30
2019-02-26T10:34:46.550Z,43.50
2019-02-26T10:37:18.156Z,41.63
2019-02-26T10:39:52.022Z,38.97
2019-02-26T10:42:23.205Z,50.77
2019-02-26T10:44:54.826Z,47.60
2019-02-26T10:47:27.503Z,38.57
2019-02-26T10:49:59.895Z,46.50
2019-02-26T10:52:31.542Z,42.97
2019-02-26T10:55:03.172Z,48.37
2019-02-26T10:57:36.161Z,50.30
2019-02-26T11:00:19.287Z,48.33
2019-02-26T11:02:54.030Z,53.40
2019-02-26T11:05:26.404Z,37.10
2019-02-26T11:08:01.887Z,46.77
2019-02-26T11:10:32.087Z,47.93
2019-02-26T11:13:03.763Z,52.43
2019-02-26T11:15:36.100Z,52.20
2019-02-26T11:18:08.361Z,46.10
2019-02-26T11:20:41.190Z,49.50
2019-02-26T11:23:14.229Z,44.83
2019-02-26T11:25:46.139Z,44.97
2019-02-26T11:28:17.763Z,48.50
2019-02-26T11:30:51.714Z,42.33
2019-02-26T11:33:23.092Z,48.57
2019-02-26T11:35:54.698Z,49.57
2019-02-26T11:38:27.355Z,44.53
2019-02-26T11:40:58.905Z,46.27
2019-02-26T11:43:30.437Z,45.60
2019-02-26T11:46:03.870Z,41.67
2019-02-26T11:48:35.345Z,46.87
2019-02-26T11:51:06.954Z,47.60
2019-02-26T11:53:38.588Z,49.77
2019-02-26T11:56:10.115Z,46.37
2019-02-26T11:58:41.653Z,39.03
2019-02-26T12:01:13.311Z,39.08
2019-02-26T12:03:44.935Z,40.83
2019-02-26T12:06:17.077Z,41.97
2019-02-26T12:08:50.048Z,35.13
2019-02-26T12:11:23.297Z,36.83
2019-02-26T12:13:55.241Z,40.23
2019-02-26T12:16:28.478Z,38.93
2019-02-26T12:19:03.510Z,35.15
2019-02-26T12:21:36.923Z,45.33
2019-02-26T12:24:09.227Z,43.85
2019-02-26T12:26:42.355Z,39.98
2019-02-26T12:29:16.155Z,48.42
2019-02-26T12:31:47.837Z,38.20
2019-02-26T12:34:20.794Z,46.00
2019-02-26T12:36:53.713Z,39.83
2019-02-26T12:39:29.162Z,39.38
2019-02-26T12:41:59.292Z,36.65
2019-02-26T12:44:32.035Z,34.20
2019-02-26T12:47:04.280Z,36.48
2019-02-26T12:49:38.493Z,36.63
2019-02-26T12:52:09.196Z,31.73
2019-02-26T12:54:42.835Z,44.00
2019-02-26T12:57:18.411Z,41.70
2019-02-26T12:59:49.198Z,38.23
2019-02-26T13:02:24.610Z,35.85
2019-02-26T13:04:54.165Z,32.73
2019-02-26T13:07:25.993Z,27.65
2019-02-26T13:10:02.782Z,23.85
2019-02-26T13:12:32.225Z,35.08
2019-02-26T13:15:09.524Z,31.20
2019-02-26T13:17:38.856Z,33.20
2019-02-26T13:20:14.797Z,27.77
2019-02-26T13:22:46.386Z,32.08
2019-02-26T13:25:21.578Z,28.38
2019-02-26T13:27:51.315Z,25.95
2019-02-26T13:30:27.381Z,25.30
2019-02-26T13:33:00.880Z,28.27
2019-02-26T13:35:32.222Z,28.57
2019-02-26T13:38:05.596Z,27.17
2019-02-26T13:40:38.670Z,20.77
2019-02-26T13:43:10.349Z,18.70
2019-02-26T13:45:42.025Z,21.53
2019-02-26T13:48:13.862Z,16.55
2019-02-26T13:50:45.399Z,13.80
2019-02-26T13:53:17.000Z,12.25
2019-02-26T13:55:48.671Z,13.25
2019-02-26T13:58:20.337Z,16.50
2019-02-26T14:00:52.107Z,12.90
2019-02-26T14:03:24.456Z,14.30
2019-02-26T14:05:56.042Z,17.27
2019-02-26T14:08:27.651Z,13.85
2019-02-26T14:10:59.195Z,16.10
2019-02-26T14:13:30.801Z,12.43
2019-02-26T14:16:04.034Z,12.80
2019-02-26T14:18:35.691Z,11.22
2019-02-26T14:21:07.229Z,8.88
2019-02-26T14:23:38.840Z,12.33
2019-02-26T14:26:10.342Z,19.32
2019-02-26T14:28:42.014Z,9.98
2019-02-26T14:31:13.589Z,16.07
2019-02-26T14:33:45.131Z,10.35
2019-02-26T14:36:16.668Z,14.50
2019-02-26T14:38:48.329Z,10.80
2019-02-26T14:41:19.897Z,11.20
2019-02-26T14:43:51.499Z,15.63
2019-02-26T14:46:23.154Z,12.23
2019-02-26T14:48:54.704Z,9.30
2019-02-26T14:51:26.807Z,10.50
2019-02-26T14:53:58.478Z,16.82
2019-02-26T14:56:30.109Z,10.88
2019-02-26T14:59:01.626Z,7.53
2019-02-26T15:01:33.232Z,11.78
2019-02-26T15:04:05.310Z,10.18
2019-02-26T15:06:36.922Z,13.53
2019-02-26T15:09:08.449Z,9.45
2019-02-26T15:11:40.568Z,9.25
2019-02-26T15:14:12.191Z,9.60
2019-02-26T15:16:43.745Z,12.70
2019-02-26T15:19:15.265Z,6.72
2019-02-26T15:21:47.345Z,10.20
2019-02-26T15:24:19.447Z,11.38
2019-02-26T15:26:50.975Z,17.17
2019-02-26T15:29:22.566Z,9.23
2019-02-26T15:31:54.216Z,9.28
2019-02-26T15:34:25.873Z,8.40
2019-02-26T15:36:58.282Z,10.72
2019-02-26T15:39:30.177Z,9.18
2019-02-26T15:42:01.862Z,9.90
2019-02-26T15:44:33.654Z,7.95
2019-02-26T15:49:54.700Z,9.43
2019-02-26T15:52:46.020Z,8.23
2019-02-26T15:55:25.859Z,13.00
2019-02-26T15:57:57.737Z,12.23
2019-02-26T16:00:30.913Z,14.07
2019-02-26T16:03:02.478Z,13.57
2019-02-26T16:05:39.295Z,6.50
2019-02-26T16:08:11.026Z,8.33
2019-02-26T16:10:42.693Z,11.25
2019-02-26T16:13:15.297Z,12.03
2019-02-26T16:15:47.650Z,9.87
2019-02-26T16:18:19.479Z,15.25
2019-02-26T16:20:51.083Z,12.37
2019-02-26T16:23:22.684Z,10.40
2019-02-26T16:25:54.344Z,16.80
2019-02-26T16:28:27.264Z,27.63
2019-02-26T16:31:00.058Z,34.53
2019-02-26T16:33:31.740Z,34.30
2019-02-26T16:36:03.359Z,42.87
2019-02-26T16:38:35.343Z,43.57
2019-02-26T16:41:06.931Z,46.17
2019-02-26T16:43:38.476Z,52.80
2019-02-26T16:46:10.589Z,52.37
2019-02-26T16:48:42.181Z,50.63
2019-02-26T16:51:13.692Z,48.67
2019-02-26T16:53:45.334Z,55.77
2019-02-26T16:56:16.969Z,48.40
2019-02-26T16:58:48.549Z,51.03
2019-02-26T17:01:21.802Z,49.83
2019-02-26T17:03:53.936Z,57.93
2019-02-26T17:06:25.495Z,57.90
2019-02-26T17:08:57.174Z,52.30
2019-02-26T17:11:28.845Z,45.80
2019-02-26T17:14:01.077Z,51.07
2019-02-26T17:16:32.702Z,54.93
2019-02-26T17:19:04.365Z,42.47
2019-02-26T17:21:36.078Z,44.47
2019-02-26T17:24:07.649Z,47.67
2019-02-26T17:26:39.192Z,52.73
2019-02-26T17:29:11.426Z,61.40
2019-02-26T17:31:45.242Z,59.37
2019-02-26T17:34:17.703Z,51.93
2019-02-26T17:36:50.075Z,55.90
2019-02-26T17:39:23.702Z,57.60
2019-02-26T17:41:56.927Z,61.90
2019-02-26T17:44:28.227Z,49.47
2019-02-26T17:46:59.840Z,56.43
2019-02-26T17:49:33.658Z,50.77
2019-02-26T17:52:06.497Z,56.33
2019-02-26T17:54:39.594Z,55.00
2019-02-26T17:57:11.322Z,53.17
2019-02-26T17:59:43.228Z,53.10
2019-02-26T18:02:14.863Z,51.03
2019-02-26T18:04:46.625Z,41.07
2019-02-26T18:07:18.422Z,45.57
2019-02-26T18:09:50.640Z,54.77
2019-02-26T18:12:22.384Z,54.17
2019-02-26T18:14:56.088Z,44.67
2019-02-26T18:17:27.429Z,46.00
2019-02-26T18:19:58.971Z,56.60
2019-02-26T18:22:30.549Z,61.97
2019-02-26T18:25:02.146Z,47.67
2019-02-26T18:27:33.821Z,52.67
2019-02-26T18:30:12.557Z,47.07
2019-02-26T18:32:50.219Z,49.20
2019-02-26T18:35:17.557Z,46.23
2019-02-26T18:37:49.215Z,47.73
2019-02-26T18:40:20.982Z,47.53
2019-02-26T18:42:52.590Z,47.70
2019-02-26T18:45:31.633Z,42.07
2019-02-26T18:48:03.319Z,52.37
2019-02-26T18:50:34.996Z,47.97
2019-02-26T18:53:06.680Z,42.90
2019-02-26T18:55:38.283Z,44.30
2019-02-26T18:58:10.034Z,42.70
2019-02-26T19:00:41.996Z,54.10
2019-02-26T19:03:17.853Z,47.27
2019-02-26T19:05:53.789Z,45.90
2019-02-26T19:08:24.072Z,49.93
2019-02-26T19:10:55.736Z,45.57
2019-02-26T19:13:27.318Z,53.43
2019-02-26T19:15:58.847Z,52.57
2019-02-26T19:18:30.469Z,36.93
2019-02-26T19:21:02.711Z,38.20
2019-02-26T19:23:34.334Z,47.00
2019-02-26T19:26:06.109Z,49.03
2019-02-26T19:28:38.723Z,41.73
2019-02-26T19:31:10.535Z,47.47
2019-02-26T19:33:43.628Z,45.07
2019-02-26T19:36:15.867Z,44.07
2019-02-26T19:38:48.545Z,46.77
2019-02-26T19:41:20.228Z,46.07
2019-02-26T19:43:52.494Z,46.20
2019-02-26T19:46:27.928Z,35.93
2019-02-26T19:49:08.284Z,44.17
2019-02-26T19:51:41.067Z,36.17
2019-02-26T19:54:13.048Z,48.77
2019-02-26T19:56:45.385Z,43.30
2019-02-26T19:59:17.131Z,41.13
2019-02-26T20:01:48.824Z,40.27
2019-02-26T20:04:21.535Z,44.07
2019-02-26T20:06:54.187Z,41.80
2019-02-26T20:09:26.152Z,50.43
2019-02-26T20:12:00.049Z,39.17
2019-02-26T20:14:51.452Z,40.97
2019-02-26T20:17:24.387Z,44.13
2019-02-26T20:19:56.708Z,45.73
2019-02-26T20:22:30.601Z,53.97
2019-02-26T20:25:03.915Z,44.53
2019-02-26T20:27:36.958Z,47.43
2019-02-26T20:30:16.967Z,39.47
2019-02-26T20:32:50.015Z,39.63
2019-02-26T20:35:21.662Z,46.37
2019-02-26T20:37:53.272Z,37.47
2019-02-26T20:40:27.394Z,47.83
2019-02-26T20:43:01.852Z,43.73
2019-02-26T20:45:35.353Z,45.57
2019-02-26T20:48:13.613Z,42.67
2019-02-26T20:50:56.543Z,44.80
2019-02-26T20:53:33.414Z,49.37
2019-02-26T20:56:09.588Z,46.27
2019-02-26T20:58:44.670Z,61.33
2019-02-26T21:01:15.835Z,45.60
2019-02-26T21:03:47.557Z,46.17
2019-02-26T21:06:19.261Z,45.47
2019-02-26T21:08:50.895Z,44.60
2019-02-26T21:11:23.265Z,41.77
2019-02-26T21:13:54.924Z,52.53
2019-02-26T21:16:27.203Z,47.67
2019-02-26T21:19:02.689Z,44.23
2019-02-26T21:21:32.095Z,53.57
2019-02-26T21:24:03.656Z,46.27
2019-02-26T21:26:35.277Z,45.50
2019-02-26T21:29:06.855Z,44.67
2019-02-26T21:31:39.009Z,50.03
2019-02-26T21:34:10.623Z,46.13
2019-02-26T21:36:42.309Z,51.43
2019-02-26T21:39:13.872Z,55.43
2019-02-26T21:41:45.462Z,47.00
2019-02-26T21:44:17.142Z,56.53
2019-02-26T21:46:48.709Z,49.17
2019-02-26T21:49:21.777Z,47.17
2019-02-26T21:51:55.186Z,48.40
2019-02-26T21:54:26.873Z,48.87
2019-02-26T21:56:58.489Z,49.13
2019-02-26T21:59:32.564Z,45.60
2019-02-26T22:02:03.428Z,45.60
2019-02-26T22:04:35.095Z,49.73
2019-02-26T22:07:07.147Z,41.73
2019-02-26T22:09:38.916Z,31.53
2019-02-26T22:12:10.634Z,42.20
2019-02-26T22:14:42.641Z,41.53
2019-02-26T22:17:15.176Z,46.33
2019-02-26T22:19:46.701Z,38.70
2019-02-26T22:22:19.053Z,43.90
2019-02-26T22:24:53.065Z,44.87
2019-02-26T22:27:24.632Z,30.33
2019-02-26T22:29:56.233Z,40.00
2019-02-26T22:32:27.836Z,38.30
2019-02-26T22:34:59.682Z,35.17
2019-02-26T22:37:31.457Z,34.10
2019-02-26T22:40:03.168Z,31.77
2019-02-26T22:42:34.729Z,32.13
2019-02-26T22:45:09.964Z,29.60
2019-02-26T22:47:43.947Z,42.50
2019-02-26T22:50:17.353Z,36.07
2019-02-26T22:52:48.870Z,33.00
2019-02-26T22:55:20.464Z,37.60
2019-02-26T22:57:52.418Z,31.77
2019-02-26T23:00:50.254Z,28.23
2019-02-26T23:03:23.883Z,33.60
2019-02-26T23:05:58.789Z,31.80
2019-02-26T23:08:29.355Z,27.07
2019-02-26T23:11:00.980Z,33.87
2019-02-26T23:13:33.678Z,32.47
2019-02-26T23:16:05.780Z,38.13
2019-02-26T23:18:37.377Z,38.67
2019-02-26T23:21:10.039Z,35.10
2019-02-26T23:23:42.002Z,32.77
2019-02-26T23:26:13.705Z,35.40
2019-02-26T23:28:45.454Z,36.63
2019-02-26T23:31:17.927Z,32.57
2019-02-26T23:33:49.669Z,39.93
2019-02-26T23:36:21.771Z,32.97
2019-02-26T23:38:53.501Z,34.70
2019-02-26T23:41:25.098Z,37.73
2019-02-26T23:43:56.698Z,36.80
2019-02-26T23:46:29.805Z,25.17
2019-02-26T23:49:02.403Z,32.50
2019-02-26T23:51:33.974Z,22.87
2019-02-26T23:54:07.281Z,35.33
2019-02-26T23:56:38.800Z,29.83
2019-02-26T23:59:10.726Z,35.07
